Airfield :
LOGIN :

Register | Disclaimer

   EN    FR    IT 

 










Legend :    VFR   Marginal VFR   IFR   Intensive IFR   Very Intensive IFR
Visi :
Ceiling :
>= 8 km
>= 3000ft
5 to 8 km
1000 to 3000 ft
1500m to 5 km
500 to 1000 ft
800 to 1500m
200 to 500 ft
< 800m
< 200 ft
Symbols :   Thunderstorms  Fog  Heavy snow  Heavy precipitations  Wind > 20 kt
SIGMETs :     Misc.  Thunderstorms  Icing  Turbulence  Mountain Waves  Volcanic Ashes






- Airport Elevation : 464 ft
- IATA code : EVX


LFOE - Evreux

CURRENT METAR :
  • 310400Z AUTO 16008KT 9999 SCT035 12/10 Q1021

EXPIRED METARs :
  • 310330Z AUTO 16009KT 9999 BKN034 12/11 Q1021
  • 310300Z AUTO 16006KT 9999 OVC034 13/11 Q1021
  • 310230Z AUTO 17005KT 9999 OVC036 13/11 Q1022
  • 310200Z AUTO 18005KT 9999 OVC034 13/10 Q1022
  • 310130Z AUTO 15006KT 9999 OVC035 13/10 Q1022
  • 310100Z AUTO 16005KT 9999 OVC034 13/11 Q1022

TAF AMD TAF LFOE
Valid from the 30 at 15:00 until the 31 at 15:00 UTC


301528Z 3015/3115 21012KT 9999 OVC030
BECMG 3100/3102 3000 BR BKN004
TEMPO 3103/3106 2000 BR OVC003
BECMG 3106/3108 8000 BKN008
BECMG 3110/3112 18010G20KT SCT010
BECMG 3112/3115 19015G28KT



MET'MAP, your aeronautical weather chart ! - Copyright ORBIFLY December 2007 - Disclaimer

ORBIFLY MET'MAP TEAM :

Programming & Development : Alexandra Zaïnal
Concept & original design : Baudouin d'Aumeries
Assistance for programming : Marc-Olivier Méhu
Technical & hardware support : Manuel Goepfert

Contact : metmap@orbifly.com




SOURCES & CREDITS :

   NOAA